Time;durP1;ratioP1;P1;durP2;ratioP2;P2;SDS_P1;SDS_P2;PMS_P1;PMS_P2;Temp;Humidity;BMP_temperature;BMP_pressure;BME280_temperature;BME280_humidity;BME280_pressure;Samples;Min_cycle;Max_cycle;Signal;HPM_P1;HPM_P2
2022/05/08 00:01:04;;;;;;;11.67;10.47;;;13.80;99.90;;;;;;5127141;28;20441;-86
2022/05/08 00:03:31;;;;;;;16.03;11.80;;;13.70;99.90;;;;;;5126172;28;20476;-85
2022/05/08 00:05:59;;;;;;;15.17;11.97;;;13.60;99.90;;;;;;5126581;28;20480;-86
2022/05/08 00:08:28;;;;;;;13.77;12.40;;;13.60;99.90;;;;;;5126667;28;20445;-86
2022/05/08 00:10:55;;;;;;;12.37;11.07;;;13.60;99.90;;;;;;5127028;28;20922;-87
2022/05/08 00:13:22;;;;;;;18.43;12.60;;;13.50;99.90;;;;;;5125462;28;20499;-86
2022/05/08 00:15:49;;;;;;;15.43;11.80;;;13.40;99.90;;;;;;5133419;28;20434;-85
2022/05/08 00:18:16;;;;;;;13.23;11.93;;;13.30;99.90;;;;;;5128795;28;20438;-88
2022/05/08 00:20:43;;;;;;;12.83;11.53;;;13.30;99.90;;;;;;5127463;28;20463;-87
2022/05/08 00:23:09;;;;;;;14.07;12.33;;;13.20;99.90;;;;;;5125589;28;20464;-87
2022/05/08 00:25:38;;;;;;;13.63;12.20;;;13.20;99.90;;;;;;5125670;28;20489;-87
2022/05/08 00:28:05;;;;;;;13.40;12.10;;;13.30;99.90;;;;;;5126228;28;20446;-87
2022/05/08 00:30:32;;;;;;;13.80;12.40;;;13.20;99.90;;;;;;5126618;28;20996;-86
2022/05/08 00:32:59;;;;;;;14.10;12.10;;;13.30;99.90;;;;;;5126079;28;20572;-87
2022/05/08 00:35:27;;;;;;;13.00;11.53;;;13.20;99.90;;;;;;5127700;28;20429;-87
2022/05/08 00:37:54;;;;;;;12.53;11.23;;;13.10;99.90;;;;;;5129036;28;20424;-87
2022/05/08 00:40:21;;;;;;;16.87;12.30;;;13.20;99.90;;;;;;5128265;28;20449;-87
2022/05/08 00:42:49;;;;;;;20.53;12.33;;;13.10;99.90;;;;;;5132306;28;20480;-85
2022/05/08 00:45:16;;;;;;;13.20;11.80;;;13.00;99.90;;;;;;5137619;28;20478;-86
2022/05/08 00:47:43;;;;;;;13.70;12.30;;;13.00;99.90;;;;;;5127086;28;20497;-87
2022/05/08 00:50:10;;;;;;;16.10;12.63;;;12.90;99.90;;;;;;5128595;28;20463;-86
2022/05/08 00:52:37;;;;;;;15.03;12.00;;;12.90;99.90;;;;;;5125969;28;20464;-86
2022/05/08 00:55:06;;;;;;;13.77;12.33;;;12.80;99.90;;;;;;5133292;28;20497;-82
2022/05/08 00:57:35;;;;;;;14.93;13.13;;;12.80;99.90;;;;;;5138472;28;20473;-85
2022/05/08 01:00:05;;;;;;;15.77;13.67;;;12.80;99.90;;;;;;5124480;28;20420;-86
2022/05/08 01:02:33;;;;;;;14.40;12.90;;;12.70;99.90;;;;;;5124242;28;20440;-86
2022/05/08 01:05:00;;;;;;;15.13;12.47;;;12.80;99.90;;;;;;5123324;28;21030;-86
2022/05/08 01:07:27;;;;;;;13.77;12.27;;;12.70;99.90;;;;;;5124399;28;20449;-87
2022/05/08 01:09:56;;;;;;;15.70;11.87;;;12.70;99.90;;;;;;5125356;28;20517;-87
2022/05/08 01:12:24;;;;;;;15.43;12.83;;;12.70;99.90;;;;;;5126282;28;20493;-86
2022/05/08 01:15:18;;;;;;;14.70;12.10;;;12.70;99.90;;;;;;5127085;28;20485;-87
2022/05/08 01:17:45;;;;;;;15.90;14.20;;;12.70;99.90;;;;;;5125949;28;20441;-87
2022/05/08 01:20:12;;;;;;;17.00;12.10;;;12.80;99.90;;;;;;5125518;28;20481;-86
2022/05/08 01:25:16;;;;;;;13.77;12.37;;;12.70;99.90;;;;;;5060956;28;20473;-88
2022/05/08 01:27:43;;;;;;;15.37;13.67;;;12.70;99.90;;;;;;5062381;28;20506;-88
2022/05/08 01:30:10;;;;;;;12.60;11.30;;;12.60;99.90;;;;;;5062419;28;20455;-87
2022/05/08 01:32:37;;;;;;;13.50;11.40;;;12.60;99.90;;;;;;5061657;28;20508;-86
2022/05/08 01:35:04;;;;;;;13.80;12.40;;;12.60;99.90;;;;;;5065553;28;20482;-87
2022/05/08 01:37:31;;;;;;;13.23;11.47;;;12.60;99.90;;;;;;5067382;28;20587;-87
2022/05/08 01:40:07;;;;;;;14.80;13.30;;;12.60;99.90;;;;;;5067021;28;20572;-89
2022/05/08 01:42:48;;;;;;;14.27;12.87;;;12.60;99.90;;;;;;5065931;28;20475;-87
2022/05/08 01:45:15;;;;;;;18.37;14.00;;;12.50;99.90;;;;;;5068078;28;20967;-87
2022/05/08 01:50:29;;;;;;;14.17;12.77;;;12.50;99.90;;;;;;5068784;28;20436;-89
2022/05/08 01:52:56;;;;;;;15.40;13.57;;;12.50;99.90;;;;;;5069595;28;20462;-88
2022/05/08 01:55:23;;;;;;;15.27;12.90;;;12.40;99.90;;;;;;5066735;28;20465;-87
2022/05/08 01:57:53;;;;;;;13.23;11.80;;;12.30;99.90;;;;;;5061552;28;20881;-87
2022/05/08 02:00:20;;;;;;;13.90;12.50;;;12.30;99.90;;;;;;5061960;28;20918;-87
2022/05/08 02:02:48;;;;;;;14.03;12.40;;;12.40;99.90;;;;;;5067836;28;20481;-88
2022/05/08 02:05:29;;;;;;;15.47;13.47;;;12.40;99.90;;;;;;5072860;28;20500;-87
2022/05/08 02:07:57;;;;;;;14.90;13.30;;;12.50;99.90;;;;;;5069010;28;20424;-87
2022/05/08 02:10:25;;;;;;;15.37;13.07;;;12.40;99.90;;;;;;5062328;28;20459;-87
2022/05/08 02:12:53;;;;;;;17.30;14.03;;;12.30;99.90;;;;;;5068407;28;20544;-87
2022/05/08 02:15:22;;;;;;;15.43;13.80;;;12.30;99.90;;;;;;5070390;28;20486;-88
2022/05/08 02:17:49;;;;;;;15.10;13.53;;;12.30;99.90;;;;;;5062087;28;20518;-88
2022/05/08 02:20:15;;;;;;;14.87;13.03;;;12.30;99.90;;;;;;5061053;28;20449;-86
2022/05/08 02:22:42;;;;;;;14.70;13.20;;;12.30;99.90;;;;;;5060922;28;20814;-87
2022/05/08 02:25:11;;;;;;;14.73;13.23;;;12.20;99.90;;;;;;5063056;28;20514;-87
2022/05/08 02:27:40;;;;;;;15.97;14.37;;;12.20;99.90;;;;;;5066604;28;21042;-88
2022/05/08 02:30:11;;;;;;;18.03;13.00;;;12.20;99.90;;;;;;5064261;28;20881;-88
2022/05/08 02:32:39;;;;;;;16.90;14.20;;;12.10;99.90;;;;;;5063255;28;20526;-88
2022/05/08 02:35:09;;;;;;;16.30;14.17;;;12.10;99.90;;;;;;5060704;28;20461;-87
2022/05/08 02:37:37;;;;;;;15.80;14.20;;;12.10;99.90;;;;;;5060728;28;20427;-87
2022/05/08 02:40:05;;;;;;;15.57;13.97;;;12.10;99.90;;;;;;5064713;28;20484;-87
2022/05/08 02:42:32;;;;;;;15.70;14.10;;;12.00;99.90;;;;;;5064837;28;20501;-87
2022/05/08 02:44:59;;;;;;;15.20;13.60;;;12.00;99.90;;;;;;5076991;28;20482;-87
2022/05/08 02:47:27;;;;;;;15.83;14.10;;;12.10;99.90;;;;;;5068684;28;20516;-87
2022/05/08 02:49:54;;;;;;;17.70;14.53;;;12.10;99.90;;;;;;5065383;28;20479;-87
2022/05/08 02:52:21;;;;;;;16.07;14.37;;;12.00;99.90;;;;;;5064402;28;20498;-88
2022/05/08 02:54:48;;;;;;;16.13;14.53;;;11.90;99.90;;;;;;5072072;28;20480;-86
2022/05/08 03:00:05;;;;;;;17.27;13.90;;;11.80;99.90;;;;;;5067720;28;20439;-88
2022/05/08 03:02:33;;;;;;;16.57;14.87;;;11.80;99.90;;;;;;5064870;28;20437;-86
2022/05/08 03:05:00;;;;;;;16.20;14.60;;;11.90;99.90;;;;;;5066027;28;20456;-86
2022/05/08 03:07:27;;;;;;;15.83;14.20;;;11.80;99.90;;;;;;5070253;28;20871;-87
2022/05/08 03:09:54;;;;;;;15.73;14.17;;;11.90;99.90;;;;;;5064201;28;20536;-87
2022/05/08 03:12:21;;;;;;;19.83;14.57;;;11.90;99.90;;;;;;5057753;28;20553;-87
2022/05/08 03:14:47;;;;;;;17.43;14.63;;;11.80;99.90;;;;;;5058312;28;20478;-87
2022/05/08 03:17:15;;;;;;;17.30;14.80;;;11.90;99.90;;;;;;5057817;28;20524;-86
2022/05/08 03:19:43;;;;;;;17.07;13.67;;;11.80;99.90;;;;;;5058102;28;20456;-87
2022/05/08 03:22:10;;;;;;;16.33;14.60;;;11.80;99.90;;;;;;5057435;28;20464;-87
2022/05/08 03:24:37;;;;;;;17.60;15.17;;;11.70;99.90;;;;;;5057942;28;20491;-87
2022/05/08 03:27:04;;;;;;;19.77;15.80;;;11.70;99.90;;;;;;5059193;28;20452;-87
2022/05/08 03:29:31;;;;;;;17.70;15.80;;;11.70;99.90;;;;;;5058800;28;20526;-87
2022/05/08 03:31:58;;;;;;;16.00;14.30;;;11.80;99.90;;;;;;5059365;28;20452;-87
2022/05/08 03:34:24;;;;;;;17.27;14.90;;;11.80;99.90;;;;;;5059131;28;20572;-86
2022/05/08 03:36:53;;;;;;;21.33;16.03;;;11.80;99.90;;;;;;5058294;28;20993;-86
2022/05/08 03:39:20;;;;;;;17.90;15.67;;;11.80;99.90;;;;;;5062655;28;20544;-87
2022/05/08 03:41:46;;;;;;;16.60;14.90;;;11.80;99.90;;;;;;5059939;28;20506;-87
2022/05/08 03:44:13;;;;;;;17.90;15.10;;;11.80;99.90;;;;;;5065290;28;20476;-87
2022/05/08 03:46:40;;;;;;;17.50;15.30;;;11.80;99.90;;;;;;5072283;28;20445;-87
2022/05/08 03:49:07;;;;;;;17.57;15.30;;;11.90;99.90;;;;;;5067277;28;20452;-87
2022/05/08 03:51:34;;;;;;;15.50;13.90;;;11.80;99.90;;;;;;5066405;28;20544;-87
2022/05/08 03:54:05;;;;;;;19.50;15.53;;;11.90;99.90;;;;;;5068953;28;20499;-87
2022/05/08 03:56:32;;;;;;;17.33;14.60;;;11.90;99.90;;;;;;5069394;28;20425;-86
2022/05/08 03:58:59;;;;;;;17.73;14.40;;;11.90;99.90;;;;;;5066408;28;20494;-86
2022/05/08 04:01:27;;;;;;;15.60;13.90;;;11.90;99.90;;;;;;5065797;28;20448;-86
2022/05/08 04:03:54;;;;;;;17.43;15.57;;;11.90;99.90;;;;;;5067527;28;20451;-87
2022/05/08 04:06:21;;;;;;;18.27;15.50;;;11.90;99.90;;;;;;5066522;28;20452;-86
2022/05/08 04:08:48;;;;;;;17.37;14.73;;;11.90;99.90;;;;;;5069476;28;20490;-86
2022/05/08 04:11:16;;;;;;;20.03;14.53;;;11.80;99.90;;;;;;5073600;28;20492;-86
2022/05/08 04:13:43;;;;;;;15.90;14.20;;;11.70;99.90;;;;;;5069070;28;20572;-86
2022/05/08 04:16:21;;;;;;;17.47;15.10;;;11.70;99.90;;;;;;5072821;28;20445;-86
2022/05/08 04:18:48;;;;;;;16.73;13.87;;;11.70;99.90;;;;;;5064393;28;20437;-86
2022/05/08 04:21:15;;;;;;;17.40;15.13;;;11.60;99.90;;;;;;5063273;28;20484;-87
2022/05/08 04:26:28;;;;;;;16.93;15.13;;;11.60;99.90;;;;;;5061352;28;20413;-86
2022/05/08 04:28:55;;;;;;;16.63;14.63;;;11.60;99.90;;;;;;5071447;28;20453;-87
2022/05/08 04:31:22;;;;;;;17.07;14.73;;;11.60;99.90;;;;;;5064268;28;20433;-86
2022/05/08 04:33:49;;;;;;;17.63;15.83;;;11.60;99.90;;;;;;5064818;28;20571;-87
2022/05/08 04:36:17;;;;;;;17.70;15.73;;;11.60;99.90;;;;;;5066295;28;20471;-86
2022/05/08 04:38:44;;;;;;;18.50;16.00;;;11.50;99.90;;;;;;5066550;28;20460;-85
2022/05/08 04:41:11;;;;;;;21.40;16.40;;;11.60;99.90;;;;;;5062952;28;20858;-88
2022/05/08 04:43:39;;;;;;;18.50;15.97;;;11.60;99.90;;;;;;5069046;28;20473;-88
2022/05/08 04:46:06;;;;;;;19.50;16.87;;;11.50;99.90;;;;;;5065307;28;20480;-88
2022/05/08 04:48:33;;;;;;;19.70;17.07;;;11.50;99.90;;;;;;5062218;28;20929;-85
2022/05/08 04:51:00;;;;;;;19.10;16.17;;;11.60;99.90;;;;;;5062808;28;20419;-86
2022/05/08 04:53:27;;;;;;;20.10;15.80;;;11.60;99.90;;;;;;5063548;28;20575;-87
2022/05/08 04:55:54;;;;;;;18.13;16.23;;;11.70;99.90;;;;;;5061786;28;20486;-86
2022/05/08 04:58:20;;;;;;;20.50;16.60;;;11.70;99.90;;;;;;5062722;28;20495;-86
2022/05/08 05:00:49;;;;;;;19.63;16.40;;;11.60;99.90;;;;;;5061080;28;20455;-86
2022/05/08 05:03:16;;;;;;;19.43;16.80;;;11.70;99.90;;;;;;5062425;28;20479;-86
2022/05/08 05:05:42;;;;;;;16.37;14.63;;;11.70;99.90;;;;;;5065419;28;20484;-87
2022/05/08 05:08:09;;;;;;;17.17;15.30;;;11.70;99.90;;;;;;5061777;28;20452;-87
2022/05/08 05:10:36;;;;;;;17.87;15.97;;;11.70;99.90;;;;;;5062922;28;20547;-87
2022/05/08 05:13:03;;;;;;;18.70;16.80;;;11.70;99.90;;;;;;5063549;28;20496;-87
2022/05/08 05:15:30;;;;;;;19.00;16.93;;;11.60;99.90;;;;;;5070184;28;20555;-86
2022/05/08 05:18:01;;;;;;;20.47;16.10;;;11.70;99.90;;;;;;5071962;28;20793;-86
2022/05/08 05:20:28;;;;;;;18.40;15.77;;;11.60;99.90;;;;;;5069000;28;20433;-87
2022/05/08 05:22:55;;;;;;;19.30;16.50;;;11.60;99.90;;;;;;5070827;28;20473;-88
2022/05/08 05:25:22;;;;;;;19.13;16.83;;;11.60;99.90;;;;;;5063667;28;20413;-87
2022/05/08 05:27:49;;;;;;;17.83;16.00;;;11.60;99.90;;;;;;5063358;28;20500;-87
2022/05/08 05:30:16;;;;;;;18.30;15.60;;;11.60;99.90;;;;;;5063110;28;20457;-88
2022/05/08 05:32:43;;;;;;;17.33;15.53;;;11.70;99.90;;;;;;5061073;28;20515;-87
2022/05/08 05:35:11;;;;;;;18.30;16.40;;;11.80;99.90;;;;;;5061446;28;20519;-88
2022/05/08 05:37:38;;;;;;;18.30;16.40;;;11.80;99.90;;;;;;5070465;28;20437;-87
2022/05/08 05:40:06;;;;;;;18.63;15.53;;;11.80;99.90;;;;;;5064143;28;20560;-87
2022/05/08 05:42:34;;;;;;;18.60;16.60;;;11.80;99.90;;;;;;5061236;28;20961;-87
2022/05/08 05:45:01;;;;;;;18.33;16.30;;;11.80;99.90;;;;;;5070982;28;20449;-87
2022/05/08 05:50:13;;;;;;;19.07;17.03;;;11.80;99.90;;;;;;5063054;28;21056;-87
2022/05/08 05:52:40;;;;;;;16.93;15.07;;;11.90;99.90;;;;;;5061262;28;20460;-87
2022/05/08 05:55:08;;;;;;;18.03;16.03;;;11.90;99.90;;;;;;5061288;28;20455;-87
2022/05/08 05:57:36;;;;;;;18.43;14.97;;;12.00;99.90;;;;;;5063725;28;20476;-87
2022/05/08 06:00:04;;;;;;;17.73;15.83;;;12.00;99.90;;;;;;5068755;28;20532;-87
2022/05/08 06:02:31;;;;;;;15.77;14.10;;;12.00;99.90;;;;;;5065867;28;20444;-87
2022/05/08 06:04:58;;;;;;;19.10;16.10;;;12.10;99.90;;;;;;5069058;28;20879;-86
2022/05/08 06:07:26;;;;;;;17.47;15.67;;;12.20;99.90;;;;;;5060709;28;20423;-87
2022/05/08 06:09:53;;;;;;;17.63;15.73;;;12.20;99.90;;;;;;5066810;28;20449;-89
2022/05/08 06:12:20;;;;;;;18.73;16.37;;;12.20;99.90;;;;;;5060152;28;20503;-87
2022/05/08 06:14:47;;;;;;;17.57;15.67;;;12.20;99.90;;;;;;5062688;28;20488;-86
2022/05/08 06:17:14;;;;;;;17.03;15.20;;;12.30;99.90;;;;;;5067889;28;20523;-86
2022/05/08 06:19:41;;;;;;;19.83;17.73;;;12.30;99.90;;;;;;5073206;28;20535;-87
2022/05/08 06:22:09;;;;;;;18.33;16.33;;;12.40;99.90;;;;;;5074928;28;20419;-87
2022/05/08 06:24:38;;;;;;;18.77;16.63;;;12.50;99.90;;;;;;5064088;28;20477;-87
2022/05/08 06:27:05;;;;;;;20.73;17.10;;;12.50;99.90;;;;;;5063258;28;20477;-87
2022/05/08 06:29:32;;;;;;;18.20;16.27;;;12.60;99.90;;;;;;5064355;28;20423;-87
2022/05/08 06:31:59;;;;;;;20.20;17.10;;;12.70;99.90;;;;;;5063751;28;20480;-87
2022/05/08 06:34:27;;;;;;;20.93;17.63;;;12.80;99.90;;;;;;5065745;28;20459;-87
2022/05/08 06:36:54;;;;;;;18.80;16.80;;;12.90;99.90;;;;;;5063424;28;20438;-87
2022/05/08 06:39:21;;;;;;;20.00;17.93;;;12.90;99.90;;;;;;5064953;28;20448;-87
2022/05/08 06:41:50;;;;;;;21.27;18.90;;;13.00;99.90;;;;;;5066492;28;20459;-87
2022/05/08 06:44:17;;;;;;;20.63;18.33;;;13.10;99.90;;;;;;5068985;28;20461;-88
2022/05/08 06:46:44;;;;;;;20.97;17.43;;;13.20;99.90;;;;;;5073326;28;20435;-88
2022/05/08 06:49:11;;;;;;;22.27;19.47;;;13.20;99.90;;;;;;5070163;28;20488;-87
2022/05/08 06:51:38;;;;;;;22.13;18.13;;;13.20;99.90;;;;;;5065743;28;20427;-88
2022/05/08 06:54:05;;;;;;;24.10;21.50;;;13.20;99.90;;;;;;5064397;28;20519;-87
2022/05/08 06:56:35;;;;;;;22.20;19.90;;;13.20;99.90;;;;;;5066166;28;20448;-87
2022/05/08 07:01:48;;;;;;;23.37;20.87;;;13.40;99.90;;;;;;5064574;28;20887;-87
2022/05/08 07:04:15;;;;;;;24.13;18.60;;;13.40;99.90;;;;;;5066549;28;20479;-87
2022/05/08 07:06:42;;;;;;;21.73;19.10;;;13.50;99.90;;;;;;5064907;28;20510;-87
2022/05/08 07:09:09;;;;;;;28.90;20.80;;;13.50;99.90;;;;;;5064556;28;20427;-87
2022/05/08 07:11:37;;;;;;;25.57;20.60;;;13.60;99.90;;;;;;5064860;28;20447;-87
2022/05/08 07:14:05;;;;;;;22.70;20.13;;;13.70;99.90;;;;;;5063895;28;20484;-87
2022/05/08 07:16:32;;;;;;;22.83;20.40;;;13.80;99.90;;;;;;5063381;28;20432;-87
2022/05/08 07:18:59;;;;;;;22.43;20.13;;;13.90;99.90;;;;;;5066974;28;20516;-87
2022/05/08 07:21:29;;;;;;;21.73;19.33;;;14.00;99.90;;;;;;5063368;28;20464;-87
2022/05/08 07:23:56;;;;;;;22.77;20.23;;;14.20;99.90;;;;;;5082244;22;20503;-84
2022/05/08 07:26:23;;;;;;;22.10;19.80;;;14.40;99.90;;;;;;5085620;28;20448;-85
2022/05/08 07:28:50;;;;;;;22.57;20.10;;;14.30;99.90;;;;;;5085059;28;20473;-85
2022/05/08 07:31:18;;;;;;;21.63;19.53;;;14.40;99.90;;;;;;5083110;28;20834;-86
2022/05/08 07:33:45;;;;;;;22.00;19.70;;;14.60;99.90;;;;;;5083060;28;20470;-87
2022/05/08 07:36:14;;;;;;;21.80;19.60;;;14.60;99.90;;;;;;5082885;28;20422;-87
2022/05/08 07:38:42;;;;;;;22.20;19.90;;;14.80;99.90;;;;;;5083543;28;20419;-86
2022/05/08 07:41:11;;;;;;;21.63;19.27;;;14.80;99.90;;;;;;5084951;28;20450;-86
2022/05/08 07:43:38;;;;;;;22.27;19.93;;;15.00;99.90;;;;;;5094516;28;20526;-85
2022/05/08 07:46:05;;;;;;;21.97;18.77;;;14.90;99.90;;;;;;5088915;28;20434;-85
2022/05/08 07:48:34;;;;;;;21.23;19.13;;;14.90;99.90;;;;;;5084750;28;20517;-87
2022/05/08 07:51:02;;;;;;;21.97;19.67;;;14.90;99.90;;;;;;5088062;28;20430;-86
2022/05/08 07:53:30;;;;;;;21.00;18.70;;;14.90;99.90;;;;;;5083780;28;20486;-86
2022/05/08 07:55:57;;;;;;;20.27;18.17;;;15.00;99.90;;;;;;5083398;28;20451;-86
2022/05/08 07:58:24;;;;;;;21.17;19.07;;;15.30;99.90;;;;;;5093057;28;20462;-85
2022/05/08 08:00:53;;;;;;;21.60;19.30;;;15.30;99.90;;;;;;5097026;28;20418;-86
2022/05/08 08:03:20;;;;;;;20.33;17.87;;;15.40;99.90;;;;;;5091857;28;20495;-86
2022/05/08 08:05:49;;;;;;;21.50;19.20;;;15.60;99.90;;;;;;5093441;28;20418;-87
2022/05/08 08:08:17;;;;;;;22.50;20.10;;;15.80;99.90;;;;;;5083909;28;20476;-86
2022/05/08 08:10:45;;;;;;;19.77;16.97;;;15.80;99.90;;;;;;5083868;28;20437;-85
2022/05/08 08:13:12;;;;;;;19.70;16.97;;;15.90;99.90;;;;;;5083459;28;20435;-85
2022/05/08 08:15:44;;;;;;;20.90;18.00;;;16.00;99.90;;;;;;5096833;28;20479;-83
2022/05/08 08:18:11;;;;;;;18.77;16.93;;;15.80;99.90;;;;;;5098976;28;20406;-85
2022/05/08 08:20:38;;;;;;;19.17;17.23;;;15.90;99.90;;;;;;5094151;28;20426;-86
2022/05/08 08:23:06;;;;;;;23.07;19.53;;;16.00;99.90;;;;;;5084653;28;20460;-86
2022/05/08 08:25:33;;;;;;;20.57;18.47;;;16.20;99.90;;;;;;5090100;28;20483;-86
2022/05/08 08:28:01;;;;;;;18.30;16.40;;;16.20;99.90;;;;;;5098299;28;20585;-84
2022/05/08 08:30:28;;;;;;;18.53;16.67;;;16.30;99.90;;;;;;5088372;28;20520;-85
2022/05/08 08:32:55;;;;;;;19.33;16.70;;;16.50;99.90;;;;;;5084375;28;20541;-85
2022/05/08 08:35:23;;;;;;;17.17;15.33;;;16.60;99.90;;;;;;5090186;28;20503;-84
2022/05/08 08:37:49;;;;;;;16.03;14.33;;;16.60;99.90;;;;;;5092603;28;20448;-85
2022/05/08 08:40:18;;;;;;;16.60;14.73;;;16.80;99.90;;;;;;5092901;28;20426;-87
2022/05/08 08:42:45;;;;;;;16.83;14.77;;;16.90;99.90;;;;;;5082737;28;20940;-86
2022/05/08 08:47:59;;;;;;;14.77;13.27;;;17.00;99.90;;;;;;5084996;28;20426;-85
2022/05/08 08:50:28;;;;;;;14.43;12.70;;;17.10;99.90;;;;;;5082379;28;20513;-86
2022/05/08 08:52:55;;;;;;;15.17;13.30;;;17.00;99.90;;;;;;5082325;28;20637;-85
2022/05/08 08:55:23;;;;;;;15.67;12.60;;;17.10;99.90;;;;;;5081447;28;20548;-86
2022/05/08 08:57:51;;;;;;;17.13;14.03;;;17.00;99.90;;;;;;5083305;28;20422;-86
2022/05/08 09:00:20;;;;;;;15.30;13.70;;;17.00;99.90;;;;;;5083578;28;20458;-88
2022/05/08 09:02:47;;;;;;;15.17;13.57;;;17.20;99.90;;;;;;5082760;28;20433;-87
2022/05/08 09:05:14;;;;;;;14.70;13.10;;;17.50;99.90;;;;;;5082707;28;20489;-84
2022/05/08 09:07:43;;;;;;;15.17;12.63;;;17.50;99.90;;;;;;5082112;28;20433;-85
2022/05/08 09:10:12;;;;;;;14.43;10.57;;;17.50;99.90;;;;;;5085291;28;20871;-88
2022/05/08 09:12:41;;;;;;;16.80;12.30;;;17.50;99.90;;;;;;5095521;28;20483;-87
2022/05/08 09:15:22;;;;;;;13.80;12.33;;;17.50;99.90;;;;;;5081781;28;20498;-86
2022/05/08 09:17:50;;;;;;;14.57;12.20;;;17.40;99.90;;;;;;5085822;28;20784;-85
2022/05/08 09:20:31;;;;;;;14.43;12.83;;;17.60;99.90;;;;;;5087534;28;20448;-86
2022/05/08 09:23:03;;;;;;;14.13;12.70;;;17.70;99.90;;;;;;5083934;28;20435;-87
2022/05/08 09:25:47;;;;;;;15.23;13.63;;;17.90;99.90;;;;;;5082622;28;20418;-86
2022/05/08 09:28:17;;;;;;;15.17;13.67;;;17.90;99.90;;;;;;5085611;28;20421;-84
2022/05/08 09:31:01;;;;;;;16.23;13.83;;;17.90;99.90;;;;;;5094527;28;20437;-86
2022/05/08 09:33:31;;;;;;;15.20;13.70;;;17.80;99.90;;;;;;5090273;28;20438;-88
2022/05/08 09:35:59;;;;;;;14.80;13.33;;;17.90;99.90;;;;;;5081731;28;20817;-87
2022/05/08 09:38:50;;;;;;;11.97;10.67;;;18.00;99.90;;;;;;5081305;28;20446;-87
2022/05/08 09:41:19;;;;;;;14.47;13.00;;;18.10;99.90;;;;;;5083130;28;20411;-87
2022/05/08 09:43:48;;;;;;;16.33;11.67;;;18.20;99.90;;;;;;5081169;28;20446;-87
2022/05/08 09:46:15;;;;;;;13.63;12.23;;;18.20;99.90;;;;;;5083486;28;20550;-84
2022/05/08 09:48:42;;;;;;;15.47;12.40;;;18.30;99.90;;;;;;5080242;28;20969;-86
2022/05/08 09:51:10;;;;;;;12.87;11.50;;;18.50;99.90;;;;;;5081633;28;20454;-86
2022/05/08 09:53:39;;;;;;;13.20;11.77;;;18.70;99.90;;;;;;5082283;28;20821;-86
2022/05/08 09:56:07;;;;;;;13.77;11.40;;;18.90;99.90;;;;;;5083141;28;20527;-86
2022/05/08 09:58:40;;;;;;;11.90;10.70;;;19.00;99.90;;;;;;5093316;28;20519;-86
2022/05/08 10:01:08;;;;;;;13.37;11.30;;;18.90;99.90;;;;;;5084882;28;20410;-86
2022/05/08 10:03:36;;;;;;;15.13;11.63;;;18.80;99.90;;;;;;5082515;28;20444;-88
2022/05/08 10:06:03;;;;;;;13.80;12.37;;;18.80;99.90;;;;;;5082957;28;20430;-85
2022/05/08 10:08:34;;;;;;;11.40;10.30;;;18.90;99.90;;;;;;5082835;28;20478;-86
2022/05/08 10:13:56;;;;;;;11.40;10.23;;;19.30;99.90;;;;;;5084521;28;20462;-87
2022/05/08 10:17:02;;;;;;;13.57;11.30;;;19.50;99.90;;;;;;5084235;28;20464;-88
2022/05/08 10:19:45;;;;;;;12.53;11.13;;;19.40;99.90;;;;;;5025063;28;20513;-84
2022/05/08 10:22:14;;;;;;;17.30;12.97;;;19.40;99.90;;;;;;5093480;28;20468;-85
2022/05/08 10:24:53;;;;;;;14.23;11.83;;;19.40;99.90;;;;;;5096320;28;20479;-84
2022/05/08 10:27:22;;;;;;;14.13;11.40;;;19.40;99.90;;;;;;5081333;28;20474;-85
2022/05/08 10:30:29;;;;;;;13.60;11.47;;;19.60;99.90;;;;;;5081228;28;20471;-86
2022/05/08 10:32:58;;;;;;;12.97;11.57;;;19.90;99.90;;;;;;5081816;28;20418;-86
2022/05/08 10:35:26;;;;;;;14.37;12.90;;;19.90;99.90;;;;;;5084538;28;20490;-88
2022/05/08 10:38:16;;;;;;;19.53;11.57;;;19.70;99.90;;;;;;5095579;28;20451;-86
2022/05/08 10:40:46;;;;;;;12.77;11.10;;;19.60;99.90;;;;;;5094308;28;20427;-83
2022/05/08 10:43:28;;;;;;;12.50;10.43;;;19.40;99.90;;;;;;5096153;28;20498;-85
2022/05/08 10:45:56;;;;;;;12.53;10.60;;;19.70;99.90;;;;;;5097188;28;20467;-85
2022/05/08 10:48:30;;;;;;;13.00;11.40;;;19.90;99.90;;;;;;5091185;28;20464;-87
2022/05/08 10:50:59;;;;;;;11.30;10.20;;;20.00;99.90;;;;;;5094933;28;20439;-86
2022/05/08 10:53:36;;;;;;;10.50;9.30;;;20.20;99.90;;;;;;5090124;28;20471;-88
2022/05/08 10:56:06;;;;;;;11.83;7.00;;;20.20;99.40;;;;;;5083871;28;20471;-86
2022/05/08 10:58:33;;;;;;;8.30;6.63;;;20.50;97.70;;;;;;5082816;28;20422;-87
2022/05/08 11:01:02;;;;;;;8.63;6.47;;;20.50;96.70;;;;;;5086212;28;20526;-87
2022/05/08 11:03:31;;;;;;;10.67;7.33;;;20.70;95.40;;;;;;5091108;28;20462;-88
2022/05/08 11:05:58;;;;;;;9.10;5.97;;;20.60;95.30;;;;;;5095508;28;20425;-87
2022/05/08 11:08:28;;;;;;;7.77;6.00;;;20.80;94.90;;;;;;5088391;28;20452;-87
2022/05/08 11:11:04;;;;;;;8.10;6.60;;;20.80;94.40;;;;;;5086593;28;20426;-88
2022/05/08 11:13:40;;;;;;;12.17;6.70;;;20.80;94.70;;;;;;5085898;28;20459;-88
2022/05/08 11:16:07;;;;;;;7.83;6.77;;;20.90;94.80;;;;;;5089047;28;20454;-86
2022/05/08 11:18:35;;;;;;;6.80;6.10;;;21.00;94.00;;;;;;5096170;28;20463;-87
2022/05/08 11:21:03;;;;;;;7.57;6.03;;;20.80;93.80;;;;;;5087469;28;20509;-86
2022/05/08 11:23:31;;;;;;;7.03;5.90;;;20.90;93.80;;;;;;5086239;28;20449;-85
2022/05/08 11:26:00;;;;;;;7.93;6.30;;;20.70;94.20;;;;;;5083354;28;20456;-86
2022/05/08 11:28:28;;;;;;;7.70;6.60;;;20.90;93.50;;;;;;5082770;28;20810;-86
2022/05/08 11:31:00;;;;;;;7.80;6.63;;;21.10;93.80;;;;;;5084172;28;20452;-86
2022/05/08 11:36:25;;;;;;;7.33;5.93;;;21.40;92.40;;;;;;5085651;28;20458;-87
2022/05/08 11:38:55;;;;;;;10.43;7.00;;;21.60;92.30;;;;;;5085438;28;20452;-87
2022/05/08 11:41:24;;;;;;;7.53;6.40;;;21.50;92.10;;;;;;5084539;28;20940;-86
2022/05/08 11:43:53;;;;;;;9.10;6.63;;;21.40;91.60;;;;;;5085823;28;20472;-86
2022/05/08 11:46:22;;;;;;;8.70;6.83;;;21.30;91.60;;;;;;5083821;28;20447;-87
2022/05/08 11:48:50;;;;;;;7.43;6.67;;;21.50;91.70;;;;;;5086442;28;20497;-86
2022/05/08 11:51:20;;;;;;;8.40;6.57;;;21.60;91.70;;;;;;5085058;28;20456;-86
2022/05/08 11:53:49;;;;;;;9.30;6.40;;;21.40;91.80;;;;;;5084754;28;20468;-87
2022/05/08 11:56:24;;;;;;;9.67;6.17;;;21.40;91.00;;;;;;5084274;28;20482;-87
2022/05/08 11:58:51;;;;;;;9.40;6.20;;;21.30;91.40;;;;;;5084587;28;20471;-86
2022/05/08 12:01:23;;;;;;;8.17;6.50;;;21.20;91.30;;;;;;5087109;28;20419;-87
2022/05/08 12:03:51;;;;;;;9.20;6.63;;;21.20;91.40;;;;;;5098381;28;20510;-85
2022/05/08 12:06:18;;;;;;;11.43;6.87;;;21.20;91.70;;;;;;5084093;28;20542;-87
2022/05/08 12:08:45;;;;;;;7.67;6.87;;;21.30;91.70;;;;;;5094159;28;20455;-86
2022/05/08 12:11:35;;;;;;;9.87;6.97;;;21.40;91.90;;;;;;5094039;28;20486;-88
2022/05/08 12:14:06;;;;;;;8.53;6.30;;;21.40;91.50;;;;;;5083665;28;20503;-87
2022/05/08 12:16:34;;;;;;;7.60;6.40;;;21.40;92.30;;;;;;5083767;28;21034;-88
2022/05/08 12:19:19;;;;;;;8.27;5.93;;;21.40;92.30;;;;;;5084806;28;20490;-86
2022/05/08 12:21:47;;;;;;;8.30;5.63;;;21.50;92.00;;;;;;5095615;28;20527;-86
2022/05/08 12:24:17;;;;;;;7.73;5.30;;;21.50;91.20;;;;;;5085902;28;20488;-87
2022/05/08 12:26:45;;;;;;;8.47;6.70;;;21.40;91.40;;;;;;5086054;28;20455;-86
2022/05/08 12:29:20;;;;;;;7.93;7.13;;;21.30;92.10;;;;;;5085555;28;20444;-86
2022/05/08 12:31:48;;;;;;;7.83;7.07;;;21.40;92.30;;;;;;5084606;28;20443;-87
2022/05/08 12:34:14;;;;;;;7.50;6.03;;;21.50;92.40;;;;;;5084512;28;20454;-86
2022/05/08 12:36:43;;;;;;;8.53;7.17;;;21.50;91.50;;;;;;5089580;28;20515;-85
2022/05/08 12:39:10;;;;;;;8.97;6.60;;;21.50;91.80;;;;;;5097013;28;20440;-87
2022/05/08 12:41:38;;;;;;;9.73;6.90;;;21.40;92.00;;;;;;5086140;28;20451;-86
2022/05/08 12:44:06;;;;;;;7.97;6.67;;;21.20;92.40;;;;;;5085782;28;20558;-87
2022/05/08 12:46:33;;;;;;;9.97;6.10;;;21.20;92.20;;;;;;5083951;28;20439;-87
2022/05/08 12:49:03;;;;;;;8.00;6.30;;;21.30;92.10;;;;;;5082839;28;20460;-87
2022/05/08 12:51:33;;;;;;;7.50;6.80;;;21.40;92.10;;;;;;5084400;28;20515;-87
2022/05/08 12:54:02;;;;;;;7.40;5.87;;;21.60;92.10;;;;;;5084209;28;20490;-88
2022/05/08 12:56:30;;;;;;;8.33;6.63;;;21.40;91.50;;;;;;5082159;28;20576;-88
2022/05/08 13:01:41;;;;;;;8.30;6.50;;;21.40;90.90;;;;;;5083707;28;20385;-86
2022/05/08 13:04:08;;;;;;;6.10;5.50;;;21.40;91.00;;;;;;5083322;28;20460;-86
2022/05/08 13:06:35;;;;;;;8.40;6.00;;;21.60;89.30;;;;;;5084814;28;20447;-87